createdAt,value
2019-05-13T00:01:23.870Z,99360.99
2019-05-13T00:02:58.224Z,99355.69
2019-05-13T00:04:33.897Z,99357.23
2019-05-13T00:06:08.114Z,99356.06
2019-05-13T00:07:43.783Z,99356.78
2019-05-13T00:09:18.584Z,99358.53
2019-05-13T00:10:54.201Z,99360.28
2019-05-13T00:12:28.699Z,99362.64
2019-05-13T00:14:04.392Z,99359.11
2019-05-13T00:15:38.873Z,99359.02
2019-05-13T00:17:14.708Z,99366.70
2019-05-13T00:18:48.948Z,99358.72
2019-05-13T00:20:24.204Z,99363.38
2019-05-13T00:21:58.618Z,99364.16
2019-05-13T00:23:34.086Z,99362.17
2019-05-13T00:25:08.516Z,99359.70
2019-05-13T00:26:44.518Z,99358.89
2019-05-13T00:28:19.263Z,99361.80
2019-05-13T00:29:54.477Z,99367.02
2019-05-13T00:31:28.679Z,99359.41
2019-05-13T00:33:03.909Z,99372.67
2019-05-13T00:34:38.266Z,99373.69
2019-05-13T00:36:14.247Z,99371.20
2019-05-13T00:37:48.664Z,99369.89
2019-05-13T00:39:24.569Z,99370.09
2019-05-13T00:40:59.252Z,99367.41
2019-05-13T00:42:34.444Z,99370.87
2019-05-13T00:44:08.655Z,99365.77
2019-05-13T00:45:44.481Z,99367.63
2019-05-13T00:47:18.886Z,99371.05
2019-05-13T00:48:54.287Z,99372.86
2019-05-13T00:50:28.481Z,99377.05
2019-05-13T00:52:03.890Z,99379.18
2019-05-13T00:53:38.296Z,99379.86
2019-05-13T00:55:14.852Z,99377.72
2019-05-13T00:56:49.808Z,99375.25
2019-05-13T00:58:24.569Z,99375.34
2019-05-13T00:59:58.815Z,99376.01
2019-05-13T01:01:33.996Z,99372.99
2019-05-13T01:03:08.205Z,99374.59
2019-05-13T01:04:44.497Z,99378.47
2019-05-13T01:06:18.764Z,99371.55
2019-05-13T01:07:54.108Z,99371.51
2019-05-13T01:09:28.318Z,99364.01
2019-05-13T01:11:04.240Z,99368.28
2019-05-13T01:12:39.540Z,99372.53
2019-05-13T01:14:14.542Z,99367.41
2019-05-13T01:15:48.716Z,99366.70
2019-05-13T01:17:23.664Z,99369.09
2019-05-13T01:18:57.950Z,99366.23
2019-05-13T01:20:34.498Z,99371.39
2019-05-13T01:22:09.119Z,99375.78
2019-05-13T01:23:44.043Z,99375.77
2019-05-13T01:25:18.234Z,99370.67
2019-05-13T01:26:54.163Z,99373.91
2019-05-13T01:28:29.354Z,99375.72
2019-05-13T01:30:06.611Z,99371.22
2019-05-13T01:31:43.237Z,99375.73
2019-05-13T01:33:17.720Z,99371.33
2019-05-13T01:34:53.844Z,99369.03
2019-05-13T01:36:28.405Z,99371.11
2019-05-13T01:38:04.632Z,99369.81
2019-05-13T01:39:39.886Z,99372.12
2019-05-13T01:41:14.123Z,99376.17
2019-05-13T01:42:48.671Z,99369.31
2019-05-13T01:44:24.383Z,99376.56
2019-05-13T01:45:59.695Z,99377.96
2019-05-13T01:47:34.533Z,99382.48
2019-05-13T01:49:09.513Z,99379.78
2019-05-13T01:50:44.493Z,99374.34
2019-05-13T01:52:20.107Z,99378.86
2019-05-13T01:53:54.316Z,99379.37
2019-05-13T01:55:29.144Z,99377.83
2019-05-13T01:57:04.505Z,99381.52
2019-05-13T01:58:40.029Z,99378.74
2019-05-13T02:00:14.529Z,99379.61
2019-05-13T02:01:49.331Z,99376.77
2019-05-13T02:03:24.611Z,99380.17
2019-05-13T02:04:59.926Z,99380.59
2019-05-13T02:06:34.147Z,99378.55
2019-05-13T02:08:08.976Z,99378.97
2019-05-13T02:09:44.337Z,99377.91
2019-05-13T02:11:19.842Z,99379.57
2019-05-13T02:12:54.054Z,99380.22
2019-05-13T02:14:28.820Z,99380.81
2019-05-13T02:16:04.101Z,99377.94
2019-05-13T02:17:39.736Z,99366.61
2019-05-13T02:19:14.365Z,99371.94
2019-05-13T02:20:49.273Z,99374.19
2019-05-13T02:22:24.778Z,99377.31
2019-05-13T02:24:00.145Z,99374.81
2019-05-13T02:25:34.436Z,99383.59
2019-05-13T02:27:09.332Z,99379.03
2019-05-13T02:28:43.779Z,99378.11
2019-05-13T02:30:19.446Z,99376.64
2019-05-13T02:31:56.210Z,99377.59
2019-05-13T02:33:33.564Z,99379.09
2019-05-13T02:35:06.733Z,99374.71
2019-05-13T02:36:43.858Z,99371.91
2019-05-13T02:38:24.838Z,99373.23
2019-05-13T02:39:54.281Z,99384.93
2019-05-13T02:41:28.637Z,99382.48
2019-05-13T02:43:03.985Z,99381.77
2019-05-13T02:44:38.204Z,99389.13
2019-05-13T02:46:13.293Z,99383.88
2019-05-13T02:47:47.520Z,99396.45
2019-05-13T02:49:23.101Z,99396.45
2019-05-13T02:50:57.776Z,99395.31
2019-05-13T02:52:33.465Z,99400.11
2019-05-13T02:54:08.018Z,99403.63
2019-05-13T02:55:43.832Z,99397.33
2019-05-13T02:57:18.241Z,99402.34
2019-05-13T02:58:53.027Z,99398.30
2019-05-13T03:00:27.305Z,99404.58
2019-05-13T03:02:03.855Z,99409.28
2019-05-13T03:03:38.405Z,99412.03
2019-05-13T03:05:14.135Z,99413.00
2019-05-13T03:06:48.486Z,99405.67
2019-05-13T03:08:39.134Z,99411.59
2019-05-13T03:10:03.795Z,99413.35
2019-05-13T03:11:36.369Z,99409.20
2019-05-13T03:13:12.643Z,99417.75
2019-05-13T03:14:48.602Z,99414.80
2019-05-13T03:16:27.504Z,99412.64
2019-05-13T03:18:06.260Z,99415.38
2019-05-13T03:19:43.245Z,99420.59
2019-05-13T03:21:17.126Z,99426.80
2019-05-13T03:22:52.619Z,99427.95
2019-05-13T03:24:27.764Z,99422.30
2019-05-13T03:26:03.122Z,99431.06
2019-05-13T03:27:38.671Z,99431.96
2019-05-13T03:29:13.322Z,99430.83
2019-05-13T03:30:48.406Z,99431.97
2019-05-13T03:32:26.170Z,99434.03
2019-05-13T03:34:05.709Z,99423.77
2019-05-13T03:35:37.267Z,99439.36
2019-05-13T03:37:15.304Z,99434.36
2019-05-13T03:39:05.953Z,99440.86
2019-05-13T03:40:29.234Z,99433.83
2019-05-13T03:42:04.196Z,99436.41
2019-05-13T03:43:42.945Z,99435.55
2019-05-13T03:45:16.873Z,99434.55
2019-05-13T03:46:55.381Z,99431.70
2019-05-13T03:48:33.402Z,99441.84
2019-05-13T03:50:08.637Z,99447.62
2019-05-13T03:51:43.117Z,99444.83
2019-05-13T03:53:18.573Z,99448.54
2019-05-13T03:54:53.666Z,99449.00
2019-05-13T03:56:28.652Z,99448.92
2019-05-13T03:58:03.312Z,99457.82
2019-05-13T03:59:38.575Z,99453.38
2019-05-13T04:01:13.604Z,99453.27
2019-05-13T04:02:51.907Z,99459.46
2019-05-13T04:04:24.913Z,99459.61
2019-05-13T04:06:03.293Z,99460.19
2019-05-13T04:07:35.992Z,99457.99
2019-05-13T04:09:22.482Z,99458.96
2019-05-13T04:10:46.681Z,99456.19
2019-05-13T04:12:22.772Z,99459.70
2019-05-13T04:13:57.393Z,99464.19
2019-05-13T04:15:32.261Z,99469.42
2019-05-13T04:17:06.510Z,99464.92
2019-05-13T04:18:42.523Z,99473.01
2019-05-13T04:20:17.302Z,99482.34
2019-05-13T04:21:52.920Z,99482.76
2019-05-13T04:23:27.391Z,99487.34
2019-05-13T04:25:02.643Z,99490.67
2019-05-13T04:26:36.929Z,99490.91
2019-05-13T04:28:13.370Z,99423.47
2019-05-13T04:29:48.085Z,99490.23
2019-05-13T04:31:23.229Z,99495.38
2019-05-13T04:32:57.444Z,99492.55
2019-05-13T04:34:33.949Z,99488.91
2019-05-13T04:36:08.685Z,99487.13
2019-05-13T04:37:43.751Z,99484.91
2019-05-13T04:39:38.867Z,99486.46
2019-05-13T04:40:54.568Z,99482.80
2019-05-13T04:42:28.846Z,99474.71
2019-05-13T04:44:04.082Z,99479.05
2019-05-13T04:45:38.254Z,99481.22
2019-05-13T04:47:13.135Z,99475.50
2019-05-13T04:48:47.650Z,99480.66
2019-05-13T04:50:23.046Z,99478.58
2019-05-13T04:51:57.325Z,99481.63
2019-05-13T04:53:33.312Z,99482.73
2019-05-13T04:55:08.191Z,99483.06
2019-05-13T04:56:43.589Z,99474.94
2019-05-13T04:58:17.823Z,99477.16
2019-05-13T04:59:55.011Z,99473.88
2019-05-13T05:01:52.215Z,99478.76
2019-05-13T05:03:33.503Z,99475.86
2019-05-13T05:05:28.392Z,99481.14
2019-05-13T05:07:22.221Z,99484.97
2019-05-13T05:09:08.438Z,99486.77
2019-05-13T05:11:04.137Z,99481.70
2019-05-13T05:13:16.400Z,99483.52
2019-05-13T05:15:06.120Z,99475.23
2019-05-13T05:17:15.062Z,99476.38
2019-05-13T05:19:13.692Z,99482.87
2019-05-13T05:21:01.473Z,99480.72
2019-05-13T05:22:41.869Z,99485.74
2019-05-13T05:24:53.247Z,99481.27
2019-05-13T05:26:47.360Z,99485.82
2019-05-13T05:28:46.923Z,99489.47
2019-05-13T05:30:58.758Z,99490.65
2019-05-13T05:32:45.659Z,99487.38
2019-05-13T05:34:28.668Z,99482.87
2019-05-13T05:36:41.458Z,99484.92
2019-05-13T05:38:25.830Z,99485.93
2019-05-13T05:40:01.930Z,99484.23
2019-05-13T05:41:37.572Z,99487.83
2019-05-13T05:43:14.759Z,99483.33
2019-05-13T05:44:52.815Z,99487.52
2019-05-13T05:46:28.774Z,99487.40
2019-05-13T05:48:05.087Z,99482.02
2019-05-13T05:49:42.793Z,99485.05
2019-05-13T05:51:22.157Z,99490.12
2019-05-13T05:52:58.129Z,99488.38
2019-05-13T05:54:36.064Z,99488.36
2019-05-13T05:56:13.447Z,99480.61
2019-05-13T05:57:52.218Z,99488.80
2019-05-13T05:59:27.550Z,99491.30
2019-05-13T06:01:04.027Z,99490.72
2019-05-13T06:02:42.491Z,99495.26
2019-05-13T06:04:16.488Z,99489.21
2019-05-13T06:05:51.321Z,99489.39
2019-05-13T06:07:26.285Z,99491.10
2019-05-13T06:09:01.943Z,99491.30
2019-05-13T06:10:49.091Z,99487.01
2019-05-13T06:12:13.691Z,99487.90
2019-05-13T06:13:51.556Z,99485.09
2019-05-13T06:15:24.821Z,99490.22
2019-05-13T06:17:02.404Z,99487.25
2019-05-13T06:18:35.928Z,99486.96
2019-05-13T06:20:13.224Z,99486.93
2019-05-13T06:21:47.740Z,99483.72
2019-05-13T06:23:22.522Z,99485.47
2019-05-13T06:24:57.556Z,99494.91
2019-05-13T06:26:32.178Z,99491.05
2019-05-13T06:28:06.721Z,99496.66
2019-05-13T06:29:42.352Z,99495.98
2019-05-13T06:31:17.313Z,99493.67
2019-05-13T06:32:52.501Z,99497.05
2019-05-13T06:34:27.380Z,99491.72
2019-05-13T06:36:02.513Z,99494.52
2019-05-13T06:37:36.985Z,99485.41
2019-05-13T06:39:12.485Z,99490.75
2019-05-13T06:41:02.512Z,99482.60
2019-05-13T06:42:24.445Z,99486.35
2019-05-13T06:43:58.905Z,99487.32
2019-05-13T06:45:33.500Z,99492.50
2019-05-13T06:47:07.902Z,99490.53
2019-05-13T06:48:42.678Z,99485.18
2019-05-13T06:50:17.072Z,99489.03
2019-05-13T06:51:52.742Z,99485.77
2019-05-13T06:53:27.402Z,99483.53
2019-05-13T06:55:02.875Z,99488.70
2019-05-13T06:56:37.793Z,99496.74
2019-05-13T06:58:14.088Z,99492.05
2019-05-13T06:59:48.494Z,99493.84
2019-05-13T07:01:23.421Z,99491.84
2019-05-13T07:02:57.873Z,99497.25
2019-05-13T07:04:32.923Z,99489.47
2019-05-13T07:06:07.464Z,99493.56
2019-05-13T07:07:42.480Z,99493.90
2019-05-13T07:09:17.030Z,99496.41
2019-05-13T07:10:51.758Z,99495.77
2019-05-13T07:12:26.129Z,99497.14
2019-05-13T07:14:02.410Z,99493.19
2019-05-13T07:15:37.289Z,99496.91
2019-05-13T07:17:12.457Z,99501.36
2019-05-13T07:18:47.096Z,99501.39
2019-05-13T07:20:23.172Z,99502.88
2019-05-13T07:21:57.629Z,99499.36
2019-05-13T07:23:32.324Z,99494.92
2019-05-13T07:25:07.394Z,99493.78
2019-05-13T07:26:42.153Z,99491.78
2019-05-13T07:28:16.549Z,99495.04
2019-05-13T07:29:52.545Z,99497.27
2019-05-13T07:31:27.236Z,99494.25
2019-05-13T07:33:02.045Z,99495.19
2019-05-13T07:34:36.433Z,99492.55
2019-05-13T07:36:12.785Z,99495.48
2019-05-13T07:37:47.598Z,99494.96
2019-05-13T07:39:22.776Z,99493.44
2019-05-13T07:41:02.312Z,99489.38
2019-05-13T07:42:36.933Z,99491.08
2019-05-13T07:44:11.965Z,99489.14
2019-05-13T07:45:46.977Z,99488.43
2019-05-13T07:47:22.286Z,99488.61
2019-05-13T07:48:57.136Z,99479.59
2019-05-13T07:50:32.219Z,99490.16
2019-05-13T07:52:07.497Z,99492.28
2019-05-13T07:53:42.631Z,99487.18
2019-05-13T07:55:17.408Z,99492.84
2019-05-13T07:56:52.484Z,99499.28
2019-05-13T07:58:28.016Z,99502.55
2019-05-13T08:00:02.400Z,99502.52
2019-05-13T08:01:37.053Z,99504.46
2019-05-13T08:03:12.425Z,99506.58
2019-05-13T08:04:49.535Z,99502.78
2019-05-13T08:06:23.660Z,99502.50
2019-05-13T08:07:58.238Z,99506.69
2019-05-13T08:09:32.700Z,99511.09
2019-05-13T08:11:07.470Z,99508.68
2019-05-13T08:12:41.873Z,99514.07
2019-05-13T08:14:16.563Z,99515.84
2019-05-13T08:15:54.413Z,99514.47
2019-05-13T08:17:27.540Z,99512.82
2019-05-13T08:19:02.062Z,99516.74
2019-05-13T08:20:36.833Z,99515.19
2019-05-13T08:22:12.143Z,99514.02
2019-05-13T08:23:47.022Z,99513.28
2019-05-13T08:25:22.279Z,99515.66
2019-05-13T08:26:57.179Z,99517.83
2019-05-13T08:28:32.478Z,99510.54
2019-05-13T08:30:11.735Z,99520.19
2019-05-13T08:31:45.284Z,99515.00
2019-05-13T08:33:22.443Z,99510.96
2019-05-13T08:35:01.306Z,99513.57
2019-05-13T08:36:32.833Z,99517.61
2019-05-13T08:38:07.869Z,99513.80
2019-05-13T08:39:42.598Z,99515.44
2019-05-13T08:41:19.393Z,99506.81
2019-05-13T08:42:53.703Z,99513.67
2019-05-13T08:44:28.166Z,99515.94
2019-05-13T08:46:03.375Z,99518.39
2019-05-13T08:47:37.758Z,99519.39
2019-05-13T08:49:12.688Z,99515.16
2019-05-13T08:50:47.082Z,99511.67
2019-05-13T08:52:22.040Z,99511.23
2019-05-13T08:53:57.381Z,99505.66
2019-05-13T08:55:32.390Z,99506.52
2019-05-13T08:57:06.833Z,99509.28
2019-05-13T08:58:41.428Z,99499.89
2019-05-13T09:00:21.458Z,99505.14
2019-05-13T09:01:56.502Z,99505.48
2019-05-13T09:03:32.505Z,99505.37
2019-05-13T09:05:08.652Z,99498.84
2019-05-13T09:06:43.958Z,99490.55
2019-05-13T09:08:19.082Z,99487.09
2019-05-13T09:09:53.482Z,99494.00
2019-05-13T09:11:28.134Z,99496.45
2019-05-13T09:13:02.673Z,99499.66
2019-05-13T09:14:37.532Z,99492.76
2019-05-13T09:16:14.828Z,99496.92
2019-05-13T09:17:51.643Z,99497.64
2019-05-13T09:19:25.440Z,99489.41
2019-05-13T09:21:02.529Z,99487.59
2019-05-13T09:22:36.585Z,99492.69
2019-05-13T09:25:47.256Z,99490.66
2019-05-13T09:27:22.634Z,99488.30
2019-05-13T09:28:57.368Z,99497.98
2019-05-13T09:30:31.954Z,99495.05
2019-05-13T09:32:06.985Z,99508.59
2019-05-13T09:33:41.889Z,99504.89
2019-05-13T09:35:16.450Z,99508.36
2019-05-13T09:36:51.885Z,99506.23
2019-05-13T09:38:26.603Z,99508.25
2019-05-13T09:40:02.545Z,99516.09
2019-05-13T09:41:41.047Z,99511.00
2019-05-13T09:43:13.287Z,99505.47
2019-05-13T09:44:47.717Z,99508.78
2019-05-13T09:46:22.740Z,99506.77
2019-05-13T09:47:57.381Z,99503.20
2019-05-13T09:49:32.841Z,99507.34
2019-05-13T09:51:07.668Z,99501.53
2019-05-13T09:52:42.985Z,99506.56
2019-05-13T09:54:17.473Z,99506.67
2019-05-13T09:55:52.471Z,99504.36
2019-05-13T09:57:27.104Z,99508.98
2019-05-13T09:59:02.073Z,99499.80
2019-05-13T10:00:36.503Z,99511.05
2019-05-13T10:03:57.045Z,99510.45
2019-05-13T10:05:23.849Z,99510.38
2019-05-13T10:06:58.317Z,99512.42
2019-05-13T10:08:33.079Z,99509.47
2019-05-13T10:10:08.932Z,99509.28
2019-05-13T10:11:43.865Z,99504.30
2019-05-13T10:13:18.414Z,99504.84
2019-05-13T10:14:52.984Z,99508.13
2019-05-13T10:16:27.365Z,99497.70
2019-05-13T10:18:02.616Z,99504.05
2019-05-13T10:19:37.006Z,99503.52
2019-05-13T10:21:11.750Z,99497.77
2019-05-13T10:22:46.137Z,99498.44
2019-05-13T10:24:22.195Z,99491.16
2019-05-13T10:26:03.361Z,99491.61
2019-05-13T10:27:38.428Z,99498.40
2019-05-13T10:29:13.052Z,99495.02
2019-05-13T10:30:52.489Z,99493.94
2019-05-13T10:32:24.894Z,99487.49
2019-05-13T10:34:02.063Z,99496.17
2019-05-13T10:35:37.080Z,99491.98
2019-05-13T10:37:12.197Z,99491.58
2019-05-13T10:38:46.503Z,99487.19
2019-05-13T10:40:22.947Z,99493.79
2019-05-13T10:41:57.333Z,99495.56
2019-05-13T10:43:32.609Z,99499.34
2019-05-13T10:45:12.857Z,99498.09
2019-05-13T10:46:46.710Z,99493.34
2019-05-13T10:48:22.016Z,99500.42
2019-05-13T10:49:57.132Z,99491.98
2019-05-13T10:51:32.727Z,99494.85
2019-05-13T10:53:08.452Z,99497.70
2019-05-13T10:54:42.660Z,99493.36
2019-05-13T10:56:17.952Z,99497.92
2019-05-13T10:57:52.176Z,99494.09
2019-05-13T10:59:26.932Z,99496.80
2019-05-13T11:02:37.964Z,99501.55
2019-05-13T11:04:13.555Z,99501.99
2019-05-13T11:05:52.561Z,99499.11
2019-05-13T11:07:26.054Z,99504.08
2019-05-13T11:09:02.038Z,99502.31
2019-05-13T11:10:36.519Z,99497.79
2019-05-13T11:12:12.200Z,99501.83
2019-05-13T11:13:54.385Z,99496.72
2019-05-13T11:15:23.413Z,99494.34
2019-05-13T11:16:57.622Z,99497.14
2019-05-13T11:18:32.517Z,99502.41
2019-05-13T11:20:08.109Z,99504.87
2019-05-13T11:21:44.185Z,99504.51
2019-05-13T11:23:18.956Z,99502.72
2019-05-13T11:24:53.778Z,99496.63
2019-05-13T11:26:27.988Z,99495.78
2019-05-13T11:28:03.118Z,99491.42
2019-05-13T11:29:37.405Z,99487.84
2019-05-13T11:31:12.712Z,99479.62
2019-05-13T11:32:46.994Z,99480.68
2019-05-13T11:34:22.379Z,99474.07
2019-05-13T11:35:57.091Z,99473.08
2019-05-13T11:37:32.189Z,99473.23
2019-05-13T11:39:08.141Z,99473.71
2019-05-13T11:40:43.236Z,99474.91
2019-05-13T11:42:17.516Z,99473.38
2019-05-13T11:44:11.492Z,99476.85
2019-05-13T11:45:28.174Z,99477.00
2019-05-13T11:47:03.185Z,99472.17
2019-05-13T11:48:38.222Z,99470.32
2019-05-13T11:50:13.200Z,99460.81
2019-05-13T11:51:47.400Z,99466.28
2019-05-13T11:53:32.572Z,99470.51
2019-05-13T11:55:01.790Z,99474.05
2019-05-13T11:56:35.784Z,99471.86
2019-05-13T11:58:13.471Z,99464.75
2019-05-13T11:59:46.848Z,99470.61
2019-05-13T12:01:22.834Z,99472.75
2019-05-13T12:02:57.584Z,99473.54
2019-05-13T12:04:34.462Z,99463.34
2019-05-13T12:06:08.425Z,99460.34
2019-05-13T12:07:42.626Z,99460.25
2019-05-13T12:09:17.831Z,99457.95
2019-05-13T12:10:52.306Z,99456.23
2019-05-13T12:12:31.819Z,99459.58
2019-05-13T12:14:03.967Z,99465.72
2019-05-13T12:15:45.939Z,99473.06
2019-05-13T12:17:14.641Z,99477.72
2019-05-13T12:18:52.554Z,99474.55
2019-05-13T12:20:26.183Z,99476.56
2019-05-13T12:22:02.573Z,99475.55
2019-05-13T12:23:37.001Z,99472.91
2019-05-13T12:25:13.872Z,99466.98
2019-05-13T12:26:47.961Z,99464.06
2019-05-13T12:28:22.725Z,99448.89
2019-05-13T12:29:57.548Z,99457.14
2019-05-13T12:31:33.686Z,99445.14
2019-05-13T12:33:08.040Z,99446.44
2019-05-13T12:34:45.801Z,99440.88
2019-05-13T12:36:19.914Z,99446.18
2019-05-13T12:37:55.557Z,99450.65
2019-05-13T12:39:32.054Z,99441.95
2019-05-13T12:41:06.176Z,99446.84
2019-05-13T12:42:46.275Z,99446.58
2019-05-13T12:44:17.259Z,99446.08
2019-05-13T12:45:53.329Z,99443.27
2019-05-13T12:47:27.917Z,99440.11
2019-05-13T12:49:03.872Z,99438.02
2019-05-13T12:50:38.726Z,99429.89
2019-05-13T12:52:13.353Z,99427.95
2019-05-13T12:53:48.346Z,99431.89
2019-05-13T12:55:22.556Z,99426.89
2019-05-13T12:56:57.473Z,99424.84
2019-05-13T12:58:33.928Z,99423.47
2019-05-13T13:00:09.011Z,99423.34
2019-05-13T13:01:43.257Z,99422.61
2019-05-13T13:03:18.297Z,99428.29
2019-05-13T13:05:10.490Z,99427.41
2019-05-13T13:06:39.482Z,99426.73
2019-05-13T13:08:18.292Z,99420.05
2019-05-13T13:09:43.218Z,99409.34
2019-05-13T13:11:17.929Z,99403.41
2019-05-13T13:12:54.591Z,99410.56
2019-05-13T13:14:38.216Z,99405.77
2019-05-13T13:16:05.289Z,99416.36
2019-05-13T13:17:41.469Z,99411.80
2019-05-13T13:19:15.900Z,99413.89
2019-05-13T13:20:57.937Z,99400.51
2019-05-13T13:22:26.829Z,99404.47
2019-05-13T13:24:04.559Z,99397.94
2019-05-13T13:25:37.447Z,99397.91
2019-05-13T13:27:20.847Z,99390.00
2019-05-13T13:28:48.574Z,99401.53
2019-05-13T13:30:22.938Z,99395.72
2019-05-13T13:31:58.007Z,99401.09
2019-05-13T13:33:34.334Z,99399.56
2019-05-13T13:35:09.446Z,99404.52
2019-05-13T13:36:46.090Z,99405.66
2019-05-13T13:38:25.209Z,99404.03
2019-05-13T13:39:56.560Z,99402.80
2019-05-13T13:41:32.740Z,99398.09
2019-05-13T13:43:07.276Z,99403.73
2019-05-13T13:44:42.891Z,99402.66
2019-05-13T13:46:36.960Z,99399.20
2019-05-13T13:48:03.107Z,99399.86
2019-05-13T13:49:34.533Z,99402.48
2019-05-13T13:51:06.622Z,99396.33
2019-05-13T13:52:45.601Z,99396.12
2019-05-13T13:54:17.621Z,99394.89
2019-05-13T13:55:55.793Z,99400.59
2019-05-13T13:57:28.329Z,99402.34
2019-05-13T13:59:04.490Z,99401.39
2019-05-13T14:00:52.584Z,99403.92
2019-05-13T14:02:15.191Z,99406.41
2019-05-13T14:03:52.799Z,99399.91
2019-05-13T14:05:25.870Z,99403.60
2019-05-13T14:06:25.463Z,99512.39
2019-05-13T14:06:26.943Z,99493.81
2019-05-13T14:07:03.038Z,99493.17
2019-05-13T14:07:22.050Z,99407.77
2019-05-13T14:08:36.766Z,99406.80
2019-05-13T14:10:12.033Z,99409.39
2019-05-13T14:11:46.360Z,99402.20
2019-05-13T14:13:21.922Z,99399.48
2019-05-13T14:14:56.253Z,99401.81
2019-05-13T14:16:34.893Z,99398.91
2019-05-13T14:18:06.941Z,99404.79
2019-05-13T14:19:42.162Z,99396.08
2019-05-13T14:21:16.610Z,99395.76
2019-05-13T14:22:57.505Z,99390.77
2019-05-13T14:24:27.259Z,99383.59
2019-05-13T14:26:02.495Z,99383.20
2019-05-13T14:27:36.723Z,99375.75
2019-05-13T14:29:12.332Z,99381.75
2019-05-13T14:30:47.116Z,99376.66
2019-05-13T14:32:22.518Z,99372.73
2019-05-13T14:42:34.430Z,99392.23
2019-05-13T14:44:09.197Z,99397.20
2019-05-13T14:45:43.714Z,99400.15
2019-05-13T14:47:18.470Z,99405.14
2019-05-13T14:48:52.829Z,99408.98
2019-05-13T14:50:28.681Z,99406.66
2019-05-13T14:52:02.910Z,99405.59
2019-05-13T14:53:37.742Z,99403.27
2019-05-13T14:55:12.412Z,99394.19
2019-05-13T14:56:47.201Z,99393.09
2019-05-13T14:58:21.913Z,99392.01
2019-05-13T14:59:56.796Z,99391.82
2019-05-13T15:01:31.948Z,99392.89
2019-05-13T15:03:06.888Z,99392.59
2019-05-13T15:04:41.977Z,99389.88
2019-05-13T15:06:21.535Z,99387.98
2019-05-13T15:07:55.700Z,99389.44
2019-05-13T15:09:31.469Z,99383.71
2019-05-13T15:11:05.917Z,99383.80
2019-05-13T15:22:42.235Z,99384.16
2019-05-13T15:24:16.465Z,99377.86
2019-05-13T15:25:51.509Z,99376.34
2019-05-13T15:27:27.512Z,99377.66
2019-05-13T15:29:04.990Z,99375.02
2019-05-13T15:30:38.321Z,99382.02
2019-05-13T15:32:12.599Z,99380.52
2019-05-13T15:33:47.361Z,99381.78
2019-05-13T15:35:22.403Z,99380.84
2019-05-13T15:36:57.217Z,99380.98
2019-05-13T15:38:32.093Z,99386.19
2019-05-13T15:40:08.495Z,99387.94
2019-05-13T15:41:43.025Z,99387.14
2019-05-13T15:43:17.841Z,99388.23
2019-05-13T15:44:53.096Z,99388.61
2019-05-13T15:46:28.560Z,99384.47
2019-05-13T15:48:03.135Z,99389.76
2019-05-13T15:49:39.433Z,99386.47
2019-05-13T15:51:13.646Z,99388.52
2019-05-13T15:52:48.446Z,99394.36
2019-05-13T15:54:23.960Z,99393.45
2019-05-13T15:55:58.720Z,99391.28
2019-05-13T15:57:32.997Z,99392.68
2019-05-13T15:59:08.954Z,99396.67
2019-05-13T16:00:43.969Z,99399.23
2019-05-13T16:02:22.607Z,99401.39
2019-05-13T16:03:56.053Z,99404.11
2019-05-13T16:05:31.286Z,99407.63
2019-05-13T16:07:06.385Z,99407.84
2019-05-13T16:08:43.356Z,99400.61
2019-05-13T16:10:17.264Z,99403.72
2019-05-13T16:11:52.279Z,99406.37
2019-05-13T16:13:26.888Z,99405.58
2019-05-13T16:15:02.311Z,99405.59
2019-05-13T16:16:36.768Z,99402.61
2019-05-13T16:18:11.941Z,99402.63
2019-05-13T16:19:46.561Z,99400.69
2019-05-13T16:21:21.341Z,99403.52
2019-05-13T16:22:55.661Z,99401.03
2019-05-13T16:24:32.094Z,99392.76
2019-05-13T16:26:06.570Z,99392.11
2019-05-13T16:27:41.786Z,99399.47
2019-05-13T16:29:15.980Z,99395.55
2019-05-13T16:30:51.609Z,99392.25
2019-05-13T16:32:26.070Z,99389.82
2019-05-13T16:34:01.570Z,99397.08
2019-05-13T16:35:36.157Z,99392.94
2019-05-13T16:37:12.312Z,99390.73
2019-05-13T16:38:46.697Z,99388.84
2019-05-13T16:40:22.349Z,99381.89
2019-05-13T16:41:56.829Z,99382.39
2019-05-13T16:43:32.043Z,99385.27
2019-05-13T16:45:07.208Z,99394.37
2019-05-13T16:46:43.016Z,99395.10
2019-05-13T16:48:17.274Z,99394.77
2019-05-13T16:49:52.064Z,99398.17
2019-05-13T16:51:27.832Z,99386.59
2019-05-13T16:53:03.703Z,99390.94
2019-05-13T16:54:38.517Z,99399.36
2019-05-13T16:56:25.796Z,99399.97
2019-05-13T16:57:51.343Z,99403.92
2019-05-13T16:59:26.179Z,99408.22
2019-05-13T17:01:02.503Z,99409.22
2019-05-13T17:02:37.310Z,99408.16
2019-05-13T17:04:12.519Z,99405.26
2019-05-13T17:05:47.702Z,99411.76
2019-05-13T17:07:21.998Z,99412.50
2019-05-13T17:08:56.876Z,99419.66
2019-05-13T17:10:31.677Z,99414.81
2019-05-13T17:12:06.749Z,99417.78
2019-05-13T17:13:42.172Z,99419.62
2019-05-13T17:15:17.500Z,99414.26
2019-05-13T17:16:52.168Z,99420.79
2019-05-13T17:18:26.942Z,99422.93
2019-05-13T17:20:02.377Z,99417.78
2019-05-13T17:21:37.524Z,99425.42
2019-05-13T17:23:13.867Z,99424.19
2019-05-13T17:24:48.720Z,99426.77
2019-05-13T17:26:22.951Z,99431.22
2019-05-13T17:27:57.712Z,99439.73
2019-05-13T17:29:32.150Z,99440.23
2019-05-13T17:31:07.080Z,99445.57
2019-05-13T17:32:41.290Z,99449.41
2019-05-13T17:34:16.052Z,99442.57
2019-05-13T17:35:50.558Z,99440.82
2019-05-13T17:37:26.332Z,99438.93
2019-05-13T17:39:01.860Z,99429.22
2019-05-13T17:40:36.933Z,99428.38
2019-05-13T17:42:12.171Z,99435.32
2019-05-13T17:43:47.212Z,99434.98
2019-05-13T17:45:22.101Z,99436.98
2019-05-13T17:46:56.896Z,99441.27
2019-05-13T17:48:32.935Z,99437.44
2019-05-13T17:50:11.510Z,99441.38
2019-05-13T17:51:45.057Z,99446.38
2019-05-13T17:53:21.668Z,99451.14
2019-05-13T17:54:56.002Z,99456.30
2019-05-13T17:56:32.318Z,99458.02
2019-05-13T17:58:06.593Z,99456.20
2019-05-13T17:59:41.875Z,99449.45
2019-05-13T18:01:16.550Z,99441.83
2019-05-13T18:02:51.524Z,99441.24
2019-05-13T18:04:25.805Z,99442.05
2019-05-13T18:06:03.014Z,99448.01
2019-05-13T18:07:37.409Z,99458.16
2019-05-13T18:09:12.292Z,99461.28
2019-05-13T18:10:46.593Z,99458.02
2019-05-13T18:12:22.347Z,99458.59
2019-05-13T18:13:56.990Z,99463.59
2019-05-13T18:15:31.806Z,99463.65
2019-05-13T18:17:06.429Z,99465.63
2019-05-13T18:18:47.013Z,99464.44
2019-05-13T18:20:17.401Z,99461.02
2019-05-13T18:21:52.264Z,99462.44
2019-05-13T18:23:26.545Z,99468.32
2019-05-13T18:25:03.280Z,99460.09
2019-05-13T18:26:37.493Z,99467.34
2019-05-13T18:28:27.195Z,99461.34
2019-05-13T18:29:51.332Z,99459.80
2019-05-13T18:31:26.280Z,99457.47
2019-05-13T18:33:01.222Z,99455.52
2019-05-13T18:34:36.464Z,99453.14
2019-05-13T18:36:12.014Z,99455.80
2019-05-13T18:37:46.860Z,99460.48
2019-05-13T18:39:21.681Z,99460.06
2019-05-13T18:40:58.266Z,99456.70
2019-05-13T18:42:33.965Z,99451.98
2019-05-13T18:44:08.729Z,99455.51
2019-05-13T18:45:43.350Z,99456.25
2019-05-13T18:47:18.285Z,99454.55
2019-05-13T18:48:58.745Z,99454.84
2019-05-13T18:50:31.306Z,99452.61
2019-05-13T18:52:06.225Z,99455.22
2019-05-13T18:53:41.448Z,99459.55
2019-05-13T18:55:16.018Z,99461.95
2019-05-13T18:56:52.160Z,99461.28
2019-05-13T18:58:27.180Z,99455.95
2019-05-13T19:00:02.284Z,99463.61
2019-05-13T19:01:38.165Z,99463.07
2019-05-13T19:03:12.935Z,99460.89
2019-05-13T19:04:47.566Z,99459.38